createdAt,value
2022-12-19T00:01:38.393Z,-0.40
2022-12-19T00:04:08.967Z,-0.40
2022-12-19T00:06:38.073Z,-0.40
2022-12-19T00:09:11.067Z,-0.40
2022-12-19T00:11:39.051Z,-0.50
2022-12-19T00:14:06.917Z,-0.60
2022-12-19T00:16:33.974Z,-0.60
2022-12-19T00:19:02.374Z,-0.50
2022-12-19T00:21:33.980Z,-0.60
2022-12-19T00:24:06.623Z,-0.50
2022-12-19T00:26:48.023Z,-0.60
2022-12-19T00:29:15.106Z,-0.50
2022-12-19T00:31:43.851Z,-0.60
2022-12-19T00:34:11.033Z,-0.60
2022-12-19T00:36:38.067Z,-0.60
2022-12-19T00:39:08.466Z,-0.60
2022-12-19T00:41:41.697Z,-0.50
2022-12-19T00:44:16.164Z,-0.50
2022-12-19T00:46:47.406Z,-0.40
2022-12-19T00:49:19.821Z,-0.40
2022-12-19T00:51:46.945Z,-0.40
2022-12-19T00:54:13.923Z,-0.40
2022-12-19T00:56:42.021Z,-0.50
2022-12-19T00:59:10.721Z,-0.50
2022-12-19T01:01:40.611Z,-0.50
2022-12-19T01:04:29.767Z,-0.50
2022-12-19T01:07:02.056Z,-0.60
2022-12-19T01:09:30.931Z,-0.60
2022-12-19T01:12:17.080Z,-0.60
2022-12-19T01:14:44.169Z,-0.70
2022-12-19T01:17:11.186Z,-0.70
2022-12-19T01:19:43.580Z,-0.70
2022-12-19T01:22:12.847Z,-0.80
2022-12-19T01:24:40.247Z,-0.80
2022-12-19T01:27:07.262Z,-0.80
2022-12-19T01:29:34.656Z,-0.90
2022-12-19T01:32:03.859Z,-0.90
2022-12-19T01:34:31.000Z,-0.90
2022-12-19T01:36:57.986Z,-1.00
2022-12-19T01:39:24.961Z,-1.00
2022-12-19T01:41:54.463Z,-1.00
2022-12-19T01:44:24.194Z,-1.00
2022-12-19T01:46:57.770Z,-1.00
2022-12-19T01:49:36.967Z,-1.00
2022-12-19T01:52:07.612Z,-0.90
2022-12-19T01:54:40.940Z,-0.90
2022-12-19T01:57:12.661Z,-0.90
2022-12-19T01:59:46.288Z,-0.90
2022-12-19T02:02:23.412Z,-0.90
2022-12-19T02:04:50.516Z,-0.80
2022-12-19T02:07:20.377Z,-0.80
2022-12-19T02:09:56.550Z,-0.80
2022-12-19T02:12:26.399Z,-0.80
2022-12-19T02:15:02.510Z,-0.80
2022-12-19T02:18:02.268Z,-0.80
2022-12-19T02:20:47.622Z,-0.80
2022-12-19T02:23:32.703Z,-0.80
2022-12-19T02:25:59.611Z,-0.80
2022-12-19T02:29:00.161Z,-0.80
2022-12-19T02:31:35.329Z,-0.80
2022-12-19T02:34:21.063Z,-0.80
2022-12-19T02:37:03.109Z,-0.80
2022-12-19T02:40:09.842Z,-0.70
2022-12-19T02:42:42.098Z,-0.70
2022-12-19T02:45:11.944Z,-0.70
2022-12-19T02:47:45.153Z,-0.70
2022-12-19T02:50:12.858Z,-0.70
2022-12-19T02:52:39.809Z,-0.70
2022-12-19T02:55:14.903Z,-0.70
2022-12-19T02:58:01.896Z,-0.70
2022-12-19T03:00:29.109Z,-0.70
2022-12-19T03:03:02.014Z,-0.70
2022-12-19T03:05:41.183Z,-0.70
2022-12-19T03:08:29.439Z,-0.70
2022-12-19T03:11:06.542Z,-0.60
2022-12-19T03:13:38.585Z,-0.60
2022-12-19T03:16:08.139Z,-0.60
2022-12-19T03:18:35.350Z,-0.60
2022-12-19T03:21:25.556Z,-0.50
2022-12-19T03:23:55.211Z,-0.50
2022-12-19T03:26:25.622Z,-0.50
2022-12-19T03:29:15.612Z,-0.50
2022-12-19T03:31:45.073Z,-0.50
2022-12-19T03:34:18.940Z,-0.40
2022-12-19T03:36:52.466Z,-0.40
2022-12-19T03:39:21.007Z,-0.40
2022-12-19T03:42:10.398Z,-0.40
2022-12-19T03:44:41.204Z,-0.40
2022-12-19T03:47:18.062Z,-0.40
2022-12-19T03:49:46.568Z,-0.40
2022-12-19T03:52:22.739Z,-0.30
2022-12-19T03:55:00.411Z,-0.40
2022-12-19T03:57:37.167Z,-0.50
2022-12-19T04:00:08.925Z,-0.40
2022-12-19T04:02:40.006Z,-0.40
2022-12-19T04:05:10.300Z,-0.40
2022-12-19T04:07:39.223Z,-0.40
2022-12-19T04:10:09.803Z,-0.40
2022-12-19T04:12:41.967Z,-0.40
2022-12-19T04:15:12.917Z,-0.40
2022-12-19T04:17:45.747Z,-0.40
2022-12-19T04:20:21.145Z,-0.40
2022-12-19T04:23:17.915Z,-0.40
2022-12-19T04:25:51.380Z,-0.40
2022-12-19T04:28:47.170Z,-0.40
2022-12-19T04:31:15.586Z,-0.40
2022-12-19T04:33:42.867Z,-0.40
2022-12-19T04:36:11.261Z,-0.40
2022-12-19T04:38:38.420Z,-0.40
2022-12-19T04:41:05.918Z,-0.40
2022-12-19T04:43:32.915Z,-0.40
2022-12-19T04:46:00.459Z,-0.50
2022-12-19T04:48:27.680Z,-0.50
2022-12-19T04:50:56.404Z,-0.50
2022-12-19T04:53:24.810Z,-0.60
2022-12-19T04:55:51.802Z,-0.60
2022-12-19T04:58:21.844Z,-0.60
2022-12-19T05:00:49.426Z,-0.60
2022-12-19T05:03:16.404Z,-0.60
2022-12-19T05:05:43.624Z,-0.60
2022-12-19T05:08:11.242Z,-0.60
2022-12-19T05:10:38.285Z,-0.60
2022-12-19T05:13:05.246Z,-0.70
2022-12-19T05:15:32.215Z,-0.60
2022-12-19T05:17:59.220Z,-0.60
2022-12-19T05:20:26.206Z,-0.60
2022-12-19T05:22:53.166Z,-0.70
2022-12-19T05:25:20.149Z,-0.60
2022-12-19T05:27:47.158Z,-0.70
2022-12-19T05:30:14.364Z,-0.60
2022-12-19T05:32:41.423Z,-0.60
2022-12-19T05:35:08.422Z,-0.60
2022-12-19T05:37:35.553Z,-0.60
2022-12-19T05:40:02.794Z,-0.60
2022-12-19T05:42:29.740Z,-0.60
2022-12-19T05:44:56.859Z,-0.60
2022-12-19T05:47:23.858Z,-0.60
2022-12-19T05:49:50.870Z,-0.60
2022-12-19T05:52:18.015Z,-0.60
2022-12-19T05:54:45.138Z,-0.60
2022-12-19T05:57:12.155Z,-0.50
2022-12-19T05:59:39.084Z,-0.50
2022-12-19T06:02:06.175Z,-0.60
2022-12-19T06:04:33.297Z,-0.50
2022-12-19T06:07:00.351Z,-0.50
2022-12-19T06:09:27.301Z,-0.50
2022-12-19T06:11:54.284Z,-0.50
2022-12-19T06:14:21.405Z,-0.60
2022-12-19T06:16:48.487Z,-0.60
2022-12-19T06:19:15.490Z,-0.70
2022-12-19T06:21:47.698Z,-0.70
2022-12-19T06:24:15.777Z,-0.70
2022-12-19T06:26:43.225Z,-0.70
2022-12-19T06:29:10.200Z,-0.70
2022-12-19T06:31:37.199Z,-0.70
2022-12-19T06:34:04.280Z,-0.70
2022-12-19T06:36:31.890Z,-0.70
2022-12-19T06:38:59.239Z,-0.70
2022-12-19T06:41:45.757Z,-0.70
2022-12-19T06:44:15.000Z,-0.70
2022-12-19T06:46:42.571Z,-0.70
2022-12-19T06:49:11.851Z,-0.60
2022-12-19T06:51:39.028Z,-0.70
2022-12-19T06:54:06.038Z,-0.60
2022-12-19T06:56:37.651Z,-0.60
2022-12-19T06:59:05.965Z,-0.60
2022-12-19T07:01:39.053Z,-0.60
2022-12-19T07:04:08.000Z,-0.60
2022-12-19T07:06:35.539Z,-0.60
2022-12-19T07:09:02.607Z,-0.60
2022-12-19T07:11:29.565Z,-0.60
2022-12-19T07:13:56.745Z,-0.50
2022-12-19T07:16:25.625Z,-0.50
2022-12-19T07:18:52.980Z,-0.60
2022-12-19T07:21:20.264Z,-0.50
2022-12-19T07:23:47.275Z,-0.50
2022-12-19T07:26:14.282Z,-0.50
2022-12-19T07:28:41.313Z,-0.50
2022-12-19T07:31:08.272Z,-0.50
2022-12-19T07:33:35.345Z,-0.50
2022-12-19T07:36:02.394Z,-0.50
2022-12-19T07:38:29.411Z,-0.50
2022-12-19T07:40:56.393Z,-0.60
2022-12-19T07:43:23.382Z,-0.60
2022-12-19T07:45:55.569Z,-0.60
2022-12-19T07:48:23.732Z,-0.50
2022-12-19T07:50:50.818Z,-0.60
2022-12-19T07:53:17.800Z,-0.60
2022-12-19T07:55:45.018Z,-0.60
2022-12-19T07:58:12.008Z,-0.60
2022-12-19T08:00:39.036Z,-0.60
2022-12-19T08:03:06.141Z,-0.60
2022-12-19T08:05:35.174Z,-0.60
2022-12-19T08:08:02.314Z,-0.60
2022-12-19T08:10:29.372Z,-0.60
2022-12-19T08:12:56.444Z,-0.50
2022-12-19T08:15:23.423Z,-0.60
2022-12-19T08:17:50.495Z,-0.60
2022-12-19T08:20:17.593Z,-0.50
2022-12-19T08:22:44.772Z,-0.60
2022-12-19T08:25:12.620Z,-0.50
2022-12-19T08:27:39.942Z,-0.60
2022-12-19T08:30:07.684Z,-0.50
2022-12-19T08:32:36.002Z,-0.50
2022-12-19T08:35:03.080Z,-0.40
2022-12-19T08:37:30.039Z,-0.40
2022-12-19T08:39:57.077Z,-0.40
2022-12-19T08:42:24.082Z,-0.40
2022-12-19T08:44:51.017Z,-0.40
2022-12-19T08:47:18.010Z,-0.30
2022-12-19T08:49:44.985Z,-0.30
2022-12-19T08:52:11.992Z,-0.30
2022-12-19T08:54:39.078Z,-0.30
2022-12-19T08:57:06.090Z,-0.30
2022-12-19T08:59:33.071Z,-0.30
2022-12-19T09:02:02.256Z,-0.30
2022-12-19T09:06:02.511Z,-0.30
2022-12-19T09:07:17.767Z,-0.30
2022-12-19T09:09:45.477Z,-0.20
2022-12-19T09:12:17.033Z,-0.20
2022-12-19T09:14:46.739Z,-0.10
2022-12-19T09:17:14.062Z,-0.10
2022-12-19T09:19:43.074Z,-0.10
2022-12-19T09:22:15.438Z,-0.10
2022-12-19T09:24:42.473Z,0.00
2022-12-19T09:27:09.507Z,0.00
2022-12-19T09:29:36.727Z,0.10
2022-12-19T09:32:03.724Z,0.10
2022-12-19T09:34:36.770Z,0.10
2022-12-19T09:37:07.957Z,0.10
2022-12-19T09:39:36.428Z,0.10
2022-12-19T09:42:12.180Z,0.10
2022-12-19T09:44:42.248Z,0.20
2022-12-19T09:47:20.381Z,0.20
2022-12-19T09:49:49.135Z,0.20
2022-12-19T09:52:29.799Z,0.20
2022-12-19T09:55:24.403Z,0.20
2022-12-19T09:58:14.170Z,0.20
2022-12-19T10:00:47.564Z,0.30
2022-12-19T10:03:32.317Z,0.30
2022-12-19T10:07:11.195Z,0.30
2022-12-19T10:10:34.079Z,0.30
2022-12-19T10:12:40.653Z,0.30
2022-12-19T10:15:44.303Z,0.40
2022-12-19T10:18:42.320Z,0.40
2022-12-19T10:22:15.681Z,0.50
2022-12-19T10:25:08.139Z,0.50
2022-12-19T10:28:00.550Z,0.50
2022-12-19T10:30:32.950Z,0.60
2022-12-19T10:33:24.581Z,0.50
2022-12-19T10:36:02.131Z,0.50
2022-12-19T10:38:51.273Z,0.50
2022-12-19T10:41:26.157Z,0.60
2022-12-19T10:43:53.168Z,0.60
2022-12-19T10:46:42.349Z,0.70
2022-12-19T10:49:22.206Z,0.70
2022-12-19T10:52:04.810Z,0.70
2022-12-19T10:54:43.028Z,0.70
2022-12-19T10:57:22.014Z,0.70
2022-12-19T11:00:04.424Z,0.60
2022-12-19T11:02:45.783Z,0.70
2022-12-19T11:05:44.276Z,0.70
2022-12-19T11:08:21.259Z,0.80
2022-12-19T11:12:03.966Z,0.80
2022-12-19T11:18:55.766Z,0.80
2022-12-19T11:27:45.699Z,0.80
2022-12-19T11:29:16.963Z,0.80
2022-12-19T11:29:30.357Z,0.90
2022-12-19T11:30:38.845Z,0.80
2022-12-19T11:30:43.748Z,0.90
2022-12-19T11:32:32.070Z,0.90
2022-12-19T11:34:21.546Z,0.70
2022-12-19T11:36:55.452Z,0.80
2022-12-19T11:39:33.250Z,0.80
2022-12-19T11:42:17.354Z,0.80
2022-12-19T11:44:59.372Z,0.60
2022-12-19T11:47:26.292Z,0.80
2022-12-19T11:50:04.178Z,0.80
2022-12-19T11:53:11.559Z,0.80
2022-12-19T11:55:46.656Z,0.80
2022-12-19T11:58:14.163Z,0.80
2022-12-19T12:00:51.358Z,0.90
2022-12-19T12:03:54.052Z,0.80
2022-12-19T12:06:34.678Z,0.90
2022-12-19T12:16:31.170Z,0.90
2022-12-19T12:20:25.247Z,1.00
2022-12-19T12:21:44.150Z,1.00
2022-12-19T12:31:16.817Z,1.10
2022-12-19T12:31:18.058Z,1.10
2022-12-19T12:31:47.569Z,1.20
2022-12-19T12:31:48.510Z,1.20
2022-12-19T12:31:56.860Z,1.20
2022-12-19T12:35:54.018Z,1.20
2022-12-19T12:39:54.062Z,1.20
2022-12-19T12:42:53.708Z,1.20
2022-12-19T12:45:25.354Z,1.20
2022-12-19T12:47:53.725Z,1.10
2022-12-19T12:50:25.393Z,1.00
2022-12-19T12:53:02.548Z,1.00
2022-12-19T12:55:40.264Z,1.00
2022-12-19T12:58:46.077Z,1.00
2022-12-19T13:01:34.888Z,1.00
2022-12-19T13:04:13.665Z,1.00
2022-12-19T13:07:02.666Z,1.00
2022-12-19T13:09:34.128Z,1.00
2022-12-19T13:12:46.353Z,1.00
2022-12-19T13:15:32.615Z,1.00
2022-12-19T13:18:09.843Z,1.00
2022-12-19T13:20:43.846Z,1.00
2022-12-19T13:23:29.294Z,1.00
2022-12-19T13:25:56.885Z,1.00
2022-12-19T13:28:23.773Z,0.90
2022-12-19T13:31:16.113Z,1.00
2022-12-19T13:33:55.673Z,1.00
2022-12-19T13:39:51.641Z,1.00
2022-12-19T13:40:07.436Z,1.00
2022-12-19T13:43:09.665Z,1.00
2022-12-19T13:45:41.629Z,1.00
2022-12-19T13:48:19.082Z,1.00
2022-12-19T13:50:49.510Z,1.00
2022-12-19T13:53:23.303Z,1.00
2022-12-19T13:55:54.268Z,1.00
2022-12-19T13:58:34.827Z,1.00
2022-12-19T14:01:11.436Z,1.00
2022-12-19T14:03:50.489Z,1.00
2022-12-19T14:06:22.505Z,1.00
2022-12-19T14:09:25.302Z,1.00
2022-12-19T14:13:40.121Z,1.00
2022-12-19T14:15:13.192Z,1.00
2022-12-19T14:17:36.816Z,1.00
2022-12-19T14:22:01.538Z,1.00
2022-12-19T14:23:10.322Z,1.00
2022-12-19T14:28:15.474Z,1.00
2022-12-19T14:28:54.748Z,1.00
2022-12-19T14:31:25.164Z,1.00
2022-12-19T14:34:18.488Z,1.00
2022-12-19T14:36:53.318Z,1.00
2022-12-19T14:39:29.414Z,1.00
2022-12-19T14:43:55.807Z,1.00
2022-12-19T14:52:50.943Z,0.90
2022-12-19T14:52:52.339Z,0.90
2022-12-19T14:54:41.627Z,0.90
2022-12-19T14:57:25.373Z,0.90
2022-12-19T15:00:51.022Z,0.90
2022-12-19T15:03:27.989Z,0.90
2022-12-19T15:07:09.587Z,0.90
2022-12-19T15:11:02.454Z,0.90
2022-12-19T15:13:47.404Z,0.90
2022-12-19T15:15:38.682Z,0.90
2022-12-19T15:18:26.101Z,0.90
2022-12-19T15:20:57.729Z,0.90
2022-12-19T15:23:26.841Z,0.90
2022-12-19T15:26:04.603Z,0.90
2022-12-19T15:28:38.851Z,0.90
2022-12-19T15:31:18.204Z,0.90
2022-12-19T15:34:14.208Z,0.90
2022-12-19T15:36:32.238Z,0.90
2022-12-19T15:38:59.481Z,0.90
2022-12-19T15:41:26.609Z,0.90
2022-12-19T15:44:03.524Z,0.90
2022-12-19T15:46:32.568Z,0.90
2022-12-19T15:48:59.817Z,0.90
2022-12-19T15:51:26.829Z,0.90
2022-12-19T15:53:57.019Z,0.90
2022-12-19T15:56:35.241Z,0.90
2022-12-19T15:59:04.309Z,0.90
2022-12-19T16:01:33.448Z,0.90
2022-12-19T16:04:03.749Z,0.90
2022-12-19T16:06:31.009Z,0.90
2022-12-19T16:08:58.814Z,0.90
2022-12-19T16:11:25.952Z,0.90
2022-12-19T16:13:58.562Z,0.90
2022-12-19T16:16:25.595Z,0.90
2022-12-19T16:18:52.620Z,0.90
2022-12-19T16:21:33.203Z,0.90
2022-12-19T16:24:01.828Z,0.90
2022-12-19T16:26:34.263Z,0.90
2022-12-19T16:29:01.846Z,0.90
2022-12-19T16:31:29.333Z,0.90
2022-12-19T16:33:56.459Z,0.90
2022-12-19T16:36:23.498Z,0.90
2022-12-19T16:38:50.555Z,0.90
2022-12-19T16:41:26.227Z,0.90
2022-12-19T16:43:53.196Z,0.90
2022-12-19T16:46:24.067Z,0.90
2022-12-19T16:48:51.111Z,0.90
2022-12-19T16:51:24.254Z,0.90
2022-12-19T16:53:54.929Z,0.90
2022-12-19T16:56:31.369Z,0.90
2022-12-19T16:59:01.448Z,0.90
2022-12-19T17:01:29.098Z,0.90
2022-12-19T17:03:56.533Z,0.90
2022-12-19T17:06:24.439Z,0.90
2022-12-19T17:08:51.467Z,0.90
2022-12-19T17:11:21.912Z,0.80
2022-12-19T17:13:52.751Z,0.90
2022-12-19T17:16:19.946Z,0.90
2022-12-19T17:18:48.899Z,0.80
2022-12-19T17:21:22.953Z,0.80
2022-12-19T17:23:50.935Z,0.90
2022-12-19T17:26:18.721Z,0.80
2022-12-19T17:28:49.533Z,0.90
2022-12-19T17:31:24.631Z,0.90
2022-12-19T17:33:51.924Z,0.90
2022-12-19T17:36:24.877Z,0.90
2022-12-19T17:38:53.143Z,0.90
2022-12-19T17:41:20.147Z,0.90
2022-12-19T17:43:47.164Z,0.90
2022-12-19T17:46:21.972Z,0.90
2022-12-19T17:48:51.444Z,0.90
2022-12-19T17:51:23.816Z,0.90
2022-12-19T17:53:51.604Z,0.80
2022-12-19T17:56:21.102Z,0.80
2022-12-19T17:58:51.151Z,0.80
2022-12-19T18:01:24.001Z,0.80
2022-12-19T18:03:53.980Z,0.80
2022-12-19T18:06:22.441Z,0.80
2022-12-19T18:08:49.413Z,0.80
2022-12-19T18:11:25.649Z,0.80
2022-12-19T18:13:53.911Z,0.80
2022-12-19T18:16:27.025Z,0.80
2022-12-19T18:18:54.343Z,0.80
2022-12-19T18:21:24.747Z,0.80
2022-12-19T18:23:52.539Z,0.80
2022-12-19T18:26:19.675Z,0.80
2022-12-19T18:28:47.189Z,0.80
2022-12-19T18:31:18.391Z,0.80
2022-12-19T18:33:47.854Z,0.80
2022-12-19T18:36:25.559Z,0.80
2022-12-19T18:38:53.767Z,0.90
2022-12-19T18:41:21.640Z,0.90
2022-12-19T18:43:49.133Z,0.80
2022-12-19T18:46:28.980Z,0.80
2022-12-19T18:48:56.109Z,0.80
2022-12-19T18:51:23.447Z,0.80
2022-12-19T18:53:50.860Z,0.80
2022-12-19T18:56:18.281Z,0.80
2022-12-19T18:58:45.517Z,0.80
2022-12-19T19:01:18.872Z,0.80
2022-12-19T19:03:54.025Z,0.80
2022-12-19T19:06:25.908Z,0.80
2022-12-19T19:08:53.454Z,0.80
2022-12-19T19:11:23.540Z,0.80
2022-12-19T19:13:51.986Z,0.80
2022-12-19T19:16:22.717Z,0.70
2022-12-19T19:18:53.489Z,0.70
2022-12-19T19:21:27.430Z,0.70
2022-12-19T19:24:01.716Z,0.70
2022-12-19T19:26:28.908Z,0.70
2022-12-19T19:28:56.063Z,0.70
2022-12-19T19:31:27.274Z,0.70
2022-12-19T19:34:21.293Z,0.70
2022-12-19T19:36:53.922Z,0.70
2022-12-19T19:39:23.289Z,0.70
2022-12-19T19:41:50.760Z,0.70
2022-12-19T19:44:17.781Z,0.60
2022-12-19T19:46:45.491Z,0.60
2022-12-19T19:49:12.715Z,0.60
2022-12-19T19:51:39.749Z,0.70
2022-12-19T19:54:08.609Z,0.70
2022-12-19T19:56:35.971Z,0.60
2022-12-19T19:59:03.051Z,0.60
2022-12-19T20:01:30.496Z,0.60
2022-12-19T20:03:58.120Z,0.60
2022-12-19T20:06:25.863Z,0.60
2022-12-19T20:08:53.656Z,0.60
2022-12-19T20:11:21.153Z,0.60
2022-12-19T20:13:48.263Z,0.60
2022-12-19T20:16:17.413Z,0.60
2022-12-19T20:18:49.661Z,0.60
2022-12-19T20:21:18.561Z,0.60
2022-12-19T20:23:46.365Z,0.60
2022-12-19T20:26:16.669Z,0.60
2022-12-19T20:28:49.768Z,0.60
2022-12-19T20:31:23.675Z,0.70
2022-12-19T20:33:53.602Z,0.70
2022-12-19T20:36:22.144Z,0.70
2022-12-19T20:38:53.199Z,0.70
2022-12-19T20:41:20.553Z,0.70
2022-12-19T20:43:48.407Z,0.70
2022-12-19T20:46:19.543Z,0.60
2022-12-19T20:48:48.419Z,0.70
2022-12-19T20:51:16.760Z,0.60
2022-12-19T20:53:44.330Z,0.60
2022-12-19T20:56:17.298Z,0.60
2022-12-19T20:58:45.195Z,0.60
2022-12-19T21:01:15.225Z,0.60
2022-12-19T21:03:43.082Z,0.60
2022-12-19T21:06:12.766Z,0.60
2022-12-19T21:08:40.522Z,0.60
2022-12-19T21:11:09.189Z,0.60
2022-12-19T21:13:38.128Z,0.60
2022-12-19T21:16:09.309Z,0.60
2022-12-19T21:18:37.858Z,0.60
2022-12-19T21:21:07.337Z,0.60
2022-12-19T21:23:34.454Z,0.50
2022-12-19T21:26:03.365Z,0.60
2022-12-19T21:28:30.927Z,0.60
2022-12-19T21:31:07.018Z,0.60
2022-12-19T21:33:34.571Z,0.60
2022-12-19T21:36:20.472Z,0.60
2022-12-19T21:38:49.409Z,0.60
2022-12-19T21:41:19.430Z,0.60
2022-12-19T21:43:48.976Z,0.50
2022-12-19T21:46:18.234Z,0.50
2022-12-19T21:48:47.866Z,0.50
2022-12-19T21:51:17.349Z,0.50
2022-12-19T21:53:44.843Z,0.50
2022-12-19T21:56:47.410Z,0.50
2022-12-19T21:59:16.783Z,0.40
2022-12-19T22:01:45.349Z,0.50
2022-12-19T22:04:17.854Z,0.40
2022-12-19T22:06:45.115Z,0.40
2022-12-19T22:09:16.659Z,0.40
2022-12-19T22:11:45.018Z,0.40
2022-12-19T22:14:16.791Z,0.40
2022-12-19T22:16:44.773Z,0.40
2022-12-19T22:19:15.476Z,0.40
2022-12-19T22:21:43.154Z,0.40
2022-12-19T22:24:13.350Z,0.40
2022-12-19T22:26:40.942Z,0.40
2022-12-19T22:29:10.810Z,0.40
2022-12-19T22:31:39.141Z,0.40
2022-12-19T22:34:11.696Z,0.40
2022-12-19T22:36:40.848Z,0.40
2022-12-19T22:39:11.516Z,0.40
2022-12-19T22:41:39.718Z,0.40
2022-12-19T22:44:07.579Z,0.40
2022-12-19T22:46:37.170Z,0.30
2022-12-19T22:49:09.174Z,0.30
2022-12-19T22:51:37.406Z,0.30
2022-12-19T22:54:05.604Z,0.30
2022-12-19T22:56:34.551Z,0.30
2022-12-19T22:59:04.667Z,0.30
2022-12-19T23:01:37.244Z,0.30
2022-12-19T23:04:06.258Z,0.30
2022-12-19T23:06:36.858Z,0.30
2022-12-19T23:09:05.866Z,0.30
2022-12-19T23:11:37.682Z,0.30
2022-12-19T23:14:07.368Z,0.30
2022-12-19T23:16:34.601Z,0.30
2022-12-19T23:19:01.710Z,0.30
2022-12-19T23:21:28.777Z,0.30
2022-12-19T23:23:56.672Z,0.30
2022-12-19T23:26:26.847Z,0.30
2022-12-19T23:28:59.483Z,0.30
2022-12-19T23:31:27.923Z,0.30
2022-12-19T23:33:56.195Z,0.30
2022-12-19T23:37:00.241Z,0.30
2022-12-19T23:39:13.025Z,0.30
2022-12-19T23:41:40.335Z,0.30
2022-12-19T23:44:08.993Z,0.20
2022-12-19T23:46:36.483Z,0.20
2022-12-19T23:49:03.719Z,0.20
2022-12-19T23:51:30.848Z,0.20
2022-12-19T23:53:57.872Z,0.10
2022-12-19T23:56:32.470Z,0.10
2022-12-19T23:59:00.538Z,0.10
